sensor_id;sensor_type;location;lat;lon;timestamp;pressure;altitude;pressure_sealevel;temperature;humidity
19594;BME280;9944;48.240;16.478;2022-07-29T00:00:11;99656.94;;;23.68;51.25
19594;BME280;9944;48.240;16.478;2022-07-29T00:04:25;99643.78;;;23.62;51.13
19594;BME280;9944;48.240;16.478;2022-07-29T00:08:32;99643.16;;;23.57;50.93
19594;BME280;9944;48.240;16.478;2022-07-29T00:12:55;99649.72;;;23.52;51.19
19594;BME280;9944;48.240;16.478;2022-07-29T00:17:17;99649.03;;;23.48;51.52
19594;BME280;9944;48.240;16.478;2022-07-29T00:21:34;99652.97;;;23.41;51.23
19594;BME280;9944;48.240;16.478;2022-07-29T00:25:52;99656.78;;;23.37;51.54
19594;BME280;9944;48.240;16.478;2022-07-29T00:30:27;99648.72;;;23.37;51.64
19594;BME280;9944;48.240;16.478;2022-07-29T00:34:39;99642.72;;;23.31;51.87
19594;BME280;9944;48.240;16.478;2022-07-29T00:39:04;99637.94;;;23.19;52.56
19594;BME280;9944;48.240;16.478;2022-07-29T00:43:26;99624.06;;;23.11;52.64
19594;BME280;9944;48.240;16.478;2022-07-29T00:47:50;99627.31;;;22.99;53.43
19594;BME280;9944;48.240;16.478;2022-07-29T00:52:10;99618.06;;;22.87;53.34
19594;BME280;9944;48.240;16.478;2022-07-29T00:56:42;99632.66;;;22.81;53.21
19594;BME280;9944;48.240;16.478;2022-07-29T01:00:59;99630.03;;;22.80;53.38
19594;BME280;9944;48.240;16.478;2022-07-29T01:05:07;99625.66;;;22.77;53.40
19594;BME280;9944;48.240;16.478;2022-07-29T01:09:19;99624.09;;;22.73;53.94
19594;BME280;9944;48.240;16.478;2022-07-29T01:13:54;99631.44;;;22.69;54.10
19594;BME280;9944;48.240;16.478;2022-07-29T01:18:18;99627.06;;;22.67;54.35
19594;BME280;9944;48.240;16.478;2022-07-29T01:27:36;99618.59;;;22.57;54.48
19594;BME280;9944;48.240;16.478;2022-07-29T01:32:03;99625.03;;;22.53;54.54
19594;BME280;9944;48.240;16.478;2022-07-29T01:36:37;99628.03;;;22.47;55.29
19594;BME280;9944;48.240;16.478;2022-07-29T01:40:54;99633.75;;;22.39;55.00
19594;BME280;9944;48.240;16.478;2022-07-29T01:45:12;99631.38;;;22.33;55.43
19594;BME280;9944;48.240;16.478;2022-07-29T01:49:27;99633.25;;;22.31;55.83
19594;BME280;9944;48.240;16.478;2022-07-29T01:53:39;99641.53;;;22.25;55.73
19594;BME280;9944;48.240;16.478;2022-07-29T01:57:48;99636.25;;;22.23;55.80
19594;BME280;9944;48.240;16.478;2022-07-29T02:01:54;99642.69;;;22.19;56.01
19594;BME280;9944;48.240;16.478;2022-07-29T02:06:09;99633.03;;;22.15;55.96
19594;BME280;9944;48.240;16.478;2022-07-29T02:10:31;99631.50;;;22.09;55.98
19594;BME280;9944;48.240;16.478;2022-07-29T02:14:48;99626.28;;;22.06;55.67
19594;BME280;9944;48.240;16.478;2022-07-29T02:19:05;99630.06;;;22.02;55.72
19594;BME280;9944;48.240;16.478;2022-07-29T02:23:26;99628.66;;;21.93;56.08
19594;BME280;9944;48.240;16.478;2022-07-29T02:27:32;99625.13;;;21.93;56.04
19594;BME280;9944;48.240;16.478;2022-07-29T02:31:48;99620.69;;;21.92;56.10
19594;BME280;9944;48.240;16.478;2022-07-29T02:35:59;99616.44;;;21.88;56.44
19594;BME280;9944;48.240;16.478;2022-07-29T02:40:25;99614.81;;;21.84;56.64
19594;BME280;9944;48.240;16.478;2022-07-29T02:44:35;99630.09;;;21.81;56.96
19594;BME280;9944;48.240;16.478;2022-07-29T02:49:01;99628.50;;;21.77;57.25
19594;BME280;9944;48.240;16.478;2022-07-29T02:53:29;99629.47;;;21.75;57.85
19594;BME280;9944;48.240;16.478;2022-07-29T02:57:44;99619.84;;;21.71;57.60
19594;BME280;9944;48.240;16.478;2022-07-29T03:02:07;99620.22;;;21.63;58.00
19594;BME280;9944;48.240;16.478;2022-07-29T03:06:21;99621.19;;;21.60;58.17
19594;BME280;9944;48.240;16.478;2022-07-29T03:10:43;99621.25;;;21.59;58.44
19594;BME280;9944;48.240;16.478;2022-07-29T03:14:52;99629.28;;;21.59;58.62
19594;BME280;9944;48.240;16.478;2022-07-29T03:18:57;99624.97;;;21.56;58.93
19594;BME280;9944;48.240;16.478;2022-07-29T03:23:02;99618.78;;;21.54;58.81
19594;BME280;9944;48.240;16.478;2022-07-29T03:27:06;99620.59;;;21.54;58.88
19594;BME280;9944;48.240;16.478;2022-07-29T03:31:12;99624.34;;;21.50;59.04
19594;BME280;9944;48.240;16.478;2022-07-29T03:35:15;99610.16;;;21.48;59.45
19594;BME280;9944;48.240;16.478;2022-07-29T03:39:23;99616.47;;;21.45;59.11
19594;BME280;9944;48.240;16.478;2022-07-29T03:43:30;99622.97;;;21.39;59.46
19594;BME280;9944;48.240;16.478;2022-07-29T03:47:42;99612.50;;;21.33;59.36
19594;BME280;9944;48.240;16.478;2022-07-29T03:51:52;99619.75;;;21.31;59.43
19594;BME280;9944;48.240;16.478;2022-07-29T03:55:59;99622.34;;;21.33;59.73
19594;BME280;9944;48.240;16.478;2022-07-29T04:00:10;99617.00;;;21.33;59.72
19594;BME280;9944;48.240;16.478;2022-07-29T04:04:26;99624.13;;;21.34;59.92
19594;BME280;9944;48.240;16.478;2022-07-29T04:08:34;99629.47;;;21.34;59.96
19594;BME280;9944;48.240;16.478;2022-07-29T04:12:39;99618.94;;;21.29;60.17
19594;BME280;9944;48.240;16.478;2022-07-29T04:16:49;99630.44;;;21.31;60.40
19594;BME280;9944;48.240;16.478;2022-07-29T04:21:40;99627.84;;;21.30;60.57
19594;BME280;9944;48.240;16.478;2022-07-29T04:26:14;99626.84;;;21.32;60.79
19594;BME280;9944;48.240;16.478;2022-07-29T04:30:29;99633.06;;;21.33;61.02
19594;BME280;9944;48.240;16.478;2022-07-29T04:34:37;99626.84;;;21.32;60.83
19594;BME280;9944;48.240;16.478;2022-07-29T04:38:48;99640.09;;;21.35;61.33
19594;BME280;9944;48.240;16.478;2022-07-29T04:42:58;99642.63;;;21.38;61.81
19594;BME280;9944;48.240;16.478;2022-07-29T04:47:09;99645.25;;;21.40;61.96
19594;BME280;9944;48.240;16.478;2022-07-29T04:51:18;99652.22;;;21.44;62.32
19594;BME280;9944;48.240;16.478;2022-07-29T04:55:37;99645.84;;;21.48;62.44
19594;BME280;9944;48.240;16.478;2022-07-29T04:59:46;99654.59;;;21.52;62.39
19594;BME280;9944;48.240;16.478;2022-07-29T05:04:27;99653.53;;;21.56;62.42
19594;BME280;9944;48.240;16.478;2022-07-29T05:08:42;99656.88;;;21.61;61.97
19594;BME280;9944;48.240;16.478;2022-07-29T05:13:11;99658.50;;;21.65;61.85
19594;BME280;9944;48.240;16.478;2022-07-29T05:17:20;99655.41;;;21.74;61.64
19594;BME280;9944;48.240;16.478;2022-07-29T05:21:35;99660.50;;;21.80;61.51
19594;BME280;9944;48.240;16.478;2022-07-29T05:25:45;99665.31;;;21.93;61.60
19594;BME280;9944;48.240;16.478;2022-07-29T05:30:29;99665.56;;;22.07;61.78
19594;BME280;9944;48.240;16.478;2022-07-29T05:34:39;99655.88;;;22.24;61.17
19594;BME280;9944;48.240;16.478;2022-07-29T05:38:53;99655.19;;;22.39;60.85
19594;BME280;9944;48.240;16.478;2022-07-29T05:43:04;99660.41;;;22.61;60.31
19594;BME280;9944;48.240;16.478;2022-07-29T05:52:19;99674.41;;;23.06;58.12
19594;BME280;9944;48.240;16.478;2022-07-29T05:56:31;99667.97;;;23.27;58.21
19594;BME280;9944;48.240;16.478;2022-07-29T06:00:36;99676.53;;;23.53;57.38
19594;BME280;9944;48.240;16.478;2022-07-29T06:04:55;99678.09;;;23.75;57.08
19594;BME280;9944;48.240;16.478;2022-07-29T06:09:08;99666.53;;;24.08;56.65
19594;BME280;9944;48.240;16.478;2022-07-29T06:13:14;99664.25;;;24.33;55.90
19594;BME280;9944;48.240;16.478;2022-07-29T06:17:31;99676.63;;;24.53;55.61
19594;BME280;9944;48.240;16.478;2022-07-29T06:22:05;99672.16;;;24.86;54.59
19594;BME280;9944;48.240;16.478;2022-07-29T06:26:24;99672.41;;;25.13;53.61
19594;BME280;9944;48.240;16.478;2022-07-29T06:30:33;99672.31;;;25.30;52.86
19594;BME280;9944;48.240;16.478;2022-07-29T06:34:38;99670.72;;;25.42;53.30
19594;BME280;9944;48.240;16.478;2022-07-29T06:38:44;99676.25;;;25.55;52.99
19594;BME280;9944;48.240;16.478;2022-07-29T06:42:54;99690.63;;;25.70;52.61
19594;BME280;9944;48.240;16.478;2022-07-29T06:46:57;99682.97;;;25.78;52.28
19594;BME280;9944;48.240;16.478;2022-07-29T06:51:02;99688.38;;;25.92;52.26
19594;BME280;9944;48.240;16.478;2022-07-29T06:55:06;99679.75;;;26.02;51.72
19594;BME280;9944;48.240;16.478;2022-07-29T06:59:12;99673.59;;;26.14;51.67
19594;BME280;9944;48.240;16.478;2022-07-29T07:03:16;99680.06;;;26.26;51.34
19594;BME280;9944;48.240;16.478;2022-07-29T07:07:19;99683.81;;;26.23;51.08
19594;BME280;9944;48.240;16.478;2022-07-29T07:11:23;99680.44;;;26.20;51.63
19594;BME280;9944;48.240;16.478;2022-07-29T07:15:28;99693.25;;;26.16;51.68
19594;BME280;9944;48.240;16.478;2022-07-29T07:19:41;99700.38;;;26.17;51.91
19594;BME280;9944;48.240;16.478;2022-07-29T07:23:44;99695.75;;;26.19;51.34
19594;BME280;9944;48.240;16.478;2022-07-29T07:27:57;99690.25;;;26.21;51.20
19594;BME280;9944;48.240;16.478;2022-07-29T07:32:07;99694.97;;;26.17;50.54
19594;BME280;9944;48.240;16.478;2022-07-29T07:41:14;99700.19;;;26.20;50.73
19594;BME280;9944;48.240;16.478;2022-07-29T07:45:18;99703.66;;;26.22;51.13
19594;BME280;9944;48.240;16.478;2022-07-29T07:49:23;99699.78;;;26.26;51.21
19594;BME280;9944;48.240;16.478;2022-07-29T07:53:27;99699.44;;;26.33;50.58
19594;BME280;9944;48.240;16.478;2022-07-29T07:57:31;99707.91;;;26.41;50.24
19594;BME280;9944;48.240;16.478;2022-07-29T08:01:34;99710.03;;;26.50;50.39
19594;BME280;9944;48.240;16.478;2022-07-29T08:05:58;99716.22;;;26.66;50.43
19594;BME280;9944;48.240;16.478;2022-07-29T08:10:03;99711.66;;;26.81;50.28
19594;BME280;9944;48.240;16.478;2022-07-29T08:14:07;99713.66;;;26.92;49.69
19594;BME280;9944;48.240;16.478;2022-07-29T08:18:14;99722.63;;;27.07;49.21
19594;BME280;9944;48.240;16.478;2022-07-29T08:22:19;99714.25;;;27.24;49.25
19594;BME280;9944;48.240;16.478;2022-07-29T08:26:22;99717.00;;;27.52;48.33
19594;BME280;9944;48.240;16.478;2022-07-29T08:30:26;99718.97;;;27.63;48.50
19594;BME280;9944;48.240;16.478;2022-07-29T08:34:30;99720.19;;;27.71;48.02
19594;BME280;9944;48.240;16.478;2022-07-29T08:38:35;99711.97;;;27.86;47.89
19594;BME280;9944;48.240;16.478;2022-07-29T08:42:38;99713.25;;;28.07;48.04
19594;BME280;9944;48.240;16.478;2022-07-29T08:46:42;99708.69;;;28.21;47.44
19594;BME280;9944;48.240;16.478;2022-07-29T08:50:46;99712.81;;;28.39;47.27
19594;BME280;9944;48.240;16.478;2022-07-29T08:54:52;99709.78;;;28.57;47.58
19594;BME280;9944;48.240;16.478;2022-07-29T08:58:57;99708.47;;;28.75;47.04
19594;BME280;9944;48.240;16.478;2022-07-29T09:03:06;99701.63;;;28.82;46.38
19594;BME280;9944;48.240;16.478;2022-07-29T09:07:14;99707.44;;;28.89;46.46
19594;BME280;9944;48.240;16.478;2022-07-29T09:11:19;99708.41;;;28.88;46.17
19594;BME280;9944;48.240;16.478;2022-07-29T09:15:23;99714.78;;;29.00;46.46
19594;BME280;9944;48.240;16.478;2022-07-29T09:19:28;99703.59;;;29.17;46.23
19594;BME280;9944;48.240;16.478;2022-07-29T09:23:31;99706.13;;;29.32;45.55
19594;BME280;9944;48.240;16.478;2022-07-29T09:27:36;99692.75;;;29.41;46.01
19594;BME280;9944;48.240;16.478;2022-07-29T09:31:42;99690.19;;;29.51;46.02
19594;BME280;9944;48.240;16.478;2022-07-29T09:35:46;99694.91;;;29.60;45.99
19594;BME280;9944;48.240;16.478;2022-07-29T09:39:57;99689.88;;;29.67;44.80
19594;BME280;9944;48.240;16.478;2022-07-29T09:44:02;99683.97;;;29.73;44.76
19594;BME280;9944;48.240;16.478;2022-07-29T09:48:14;99687.28;;;29.90;45.18
19594;BME280;9944;48.240;16.478;2022-07-29T09:52:18;99684.22;;;30.06;44.49
19594;BME280;9944;48.240;16.478;2022-07-29T09:56:38;99691.63;;;30.15;43.09
19594;BME280;9944;48.240;16.478;2022-07-29T10:00:44;99673.84;;;30.22;43.79
19594;BME280;9944;48.240;16.478;2022-07-29T10:04:47;99684.72;;;30.22;43.63
19594;BME280;9944;48.240;16.478;2022-07-29T10:08:50;99671.03;;;30.23;43.59
19594;BME280;9944;48.240;16.478;2022-07-29T10:12:55;99671.41;;;30.30;44.47
19594;BME280;9944;48.240;16.478;2022-07-29T10:17:09;99669.66;;;30.29;43.79
19594;BME280;9944;48.240;16.478;2022-07-29T10:21:13;99665.34;;;30.27;43.51
19594;BME280;9944;48.240;16.478;2022-07-29T10:25:36;99671.63;;;30.27;43.46
19594;BME280;9944;48.240;16.478;2022-07-29T10:29:39;99669.03;;;30.26;43.50
19594;BME280;9944;48.240;16.478;2022-07-29T10:33:51;99676.31;;;30.25;43.48
19594;BME280;9944;48.240;16.478;2022-07-29T10:38:15;99664.50;;;30.26;43.19
19594;BME280;9944;48.240;16.478;2022-07-29T10:42:27;99661.81;;;30.37;43.27
19594;BME280;9944;48.240;16.478;2022-07-29T10:46:37;99649.81;;;30.51;42.76
19594;BME280;9944;48.240;16.478;2022-07-29T10:50:58;99654.03;;;30.55;42.81
19594;BME280;9944;48.240;16.478;2022-07-29T10:55:05;99652.06;;;30.57;42.38
19594;BME280;9944;48.240;16.478;2022-07-29T10:59:25;99644.75;;;30.47;42.32
19594;BME280;9944;48.240;16.478;2022-07-29T11:03:44;99647.50;;;30.35;42.85
19594;BME280;9944;48.240;16.478;2022-07-29T11:08:21;99644.47;;;30.27;42.93
19594;BME280;9944;48.240;16.478;2022-07-29T11:12:46;99633.63;;;30.16;43.09
19594;BME280;9944;48.240;16.478;2022-07-29T11:17:01;99634.22;;;30.08;43.18
19594;BME280;9944;48.240;16.478;2022-07-29T11:21:36;99631.41;;;30.10;43.15
19594;BME280;9944;48.240;16.478;2022-07-29T11:26:17;99625.50;;;30.16;43.55
19594;BME280;9944;48.240;16.478;2022-07-29T11:30:49;99632.88;;;30.25;43.45
19594;BME280;9944;48.240;16.478;2022-07-29T11:35:17;99629.44;;;30.23;42.71
19594;BME280;9944;48.240;16.478;2022-07-29T11:39:39;99618.81;;;30.20;42.76
19594;BME280;9944;48.240;16.478;2022-07-29T11:43:49;99619.06;;;30.17;42.93
19594;BME280;9944;48.240;16.478;2022-07-29T11:47:56;99616.34;;;30.17;43.09
19594;BME280;9944;48.240;16.478;2022-07-29T11:52:21;99619.56;;;30.22;42.90
19594;BME280;9944;48.240;16.478;2022-07-29T11:56:25;99613.50;;;30.18;42.99
19594;BME280;9944;48.240;16.478;2022-07-29T12:00:38;99603.75;;;30.27;43.23
19594;BME280;9944;48.240;16.478;2022-07-29T12:04:48;99591.81;;;30.41;42.91
19594;BME280;9944;48.240;16.478;2022-07-29T12:08:52;99593.31;;;30.45;43.23
19594;BME280;9944;48.240;16.478;2022-07-29T12:12:55;99587.97;;;30.55;43.18
19594;BME280;9944;48.240;16.478;2022-07-29T12:17:00;99585.72;;;30.71;43.05
19594;BME280;9944;48.240;16.478;2022-07-29T12:21:07;99581.97;;;30.84;42.94
19594;BME280;9944;48.240;16.478;2022-07-29T12:25:14;99586.41;;;30.96;41.99
19594;BME280;9944;48.240;16.478;2022-07-29T12:29:33;99578.72;;;31.01;41.99
19594;BME280;9944;48.240;16.478;2022-07-29T12:33:38;99578.03;;;31.20;42.00
19594;BME280;9944;48.240;16.478;2022-07-29T12:37:42;99573.22;;;31.33;41.94
19594;BME280;9944;48.240;16.478;2022-07-29T12:41:46;99574.16;;;31.44;41.64
19594;BME280;9944;48.240;16.478;2022-07-29T12:45:51;99572.34;;;31.44;41.20
19594;BME280;9944;48.240;16.478;2022-07-29T12:50:09;99563.13;;;31.35;41.38
19594;BME280;9944;48.240;16.478;2022-07-29T12:54:14;99561.44;;;31.23;41.29
19594;BME280;9944;48.240;16.478;2022-07-29T12:58:32;99562.75;;;31.08;41.86
19594;BME280;9944;48.240;16.478;2022-07-29T13:02:37;99556.44;;;31.07;42.25
19594;BME280;9944;48.240;16.478;2022-07-29T13:06:43;99559.31;;;31.06;42.73
19594;BME280;9944;48.240;16.478;2022-07-29T13:10:51;99566.38;;;30.97;41.67
19594;BME280;9944;48.240;16.478;2022-07-29T13:14:55;99553.31;;;30.79;41.67
19594;BME280;9944;48.240;16.478;2022-07-29T13:19:09;99556.94;;;30.69;42.80
19594;BME280;9944;48.240;16.478;2022-07-29T13:23:15;99549.19;;;30.64;42.76
19594;BME280;9944;48.240;16.478;2022-07-29T13:27:19;99544.50;;;30.55;42.94
19594;BME280;9944;48.240;16.478;2022-07-29T13:31:22;99542.56;;;30.46;42.92
19594;BME280;9944;48.240;16.478;2022-07-29T13:35:25;99538.09;;;30.45;43.03
19594;BME280;9944;48.240;16.478;2022-07-29T13:39:32;99545.25;;;30.34;43.37
19594;BME280;9944;48.240;16.478;2022-07-29T13:43:35;99543.66;;;30.32;43.92
19594;BME280;9944;48.240;16.478;2022-07-29T13:47:38;99543.78;;;30.19;44.14
19594;BME280;9944;48.240;16.478;2022-07-29T13:51:49;99552.19;;;30.04;44.19
19594;BME280;9944;48.240;16.478;2022-07-29T13:55:54;99554.03;;;29.93;44.33
19594;BME280;9944;48.240;16.478;2022-07-29T13:59:58;99560.31;;;29.71;44.61
19594;BME280;9944;48.240;16.478;2022-07-29T14:04:01;99558.06;;;29.53;45.07
19594;BME280;9944;48.240;16.478;2022-07-29T14:08:04;99561.22;;;29.36;45.83
19594;BME280;9944;48.240;16.478;2022-07-29T14:12:09;99569.78;;;29.18;46.97
19594;BME280;9944;48.240;16.478;2022-07-29T14:16:13;99582.22;;;28.97;47.56
19594;BME280;9944;48.240;16.478;2022-07-29T14:20:16;99599.47;;;28.71;48.89
19594;BME280;9944;48.240;16.478;2022-07-29T14:24:23;99612.06;;;28.47;50.57
19594;BME280;9944;48.240;16.478;2022-07-29T14:29:01;99621.22;;;28.20;52.61
19594;BME280;9944;48.240;16.478;2022-07-29T14:33:12;99637.00;;;27.88;52.59
19594;BME280;9944;48.240;16.478;2022-07-29T14:37:19;99644.75;;;27.54;53.14
19594;BME280;9944;48.240;16.478;2022-07-29T14:41:28;99657.41;;;27.26;54.38
19594;BME280;9944;48.240;16.478;2022-07-29T14:45:35;99657.50;;;26.97;55.27
19594;BME280;9944;48.240;16.478;2022-07-29T14:49:40;99654.97;;;26.81;56.23
19594;BME280;9944;48.240;16.478;2022-07-29T14:53:47;99644.44;;;26.77;57.94
19594;BME280;9944;48.240;16.478;2022-07-29T15:02:55;99608.22;;;26.52;59.85
19594;BME280;9944;48.240;16.478;2022-07-29T15:07:08;99599.56;;;26.47;60.01
19594;BME280;9944;48.240;16.478;2022-07-29T15:11:45;99597.56;;;26.36;60.68
19594;BME280;9944;48.240;16.478;2022-07-29T15:16:50;99587.63;;;26.37;61.71
19594;BME280;9944;48.240;16.478;2022-07-29T15:20:55;99573.19;;;26.38;62.61
19594;BME280;9944;48.240;16.478;2022-07-29T15:24:58;99575.31;;;26.33;62.85
19594;BME280;9944;48.240;16.478;2022-07-29T15:29:01;99569.44;;;26.26;62.98
19594;BME280;9944;48.240;16.478;2022-07-29T15:33:04;99554.53;;;26.20;63.79
19594;BME280;9944;48.240;16.478;2022-07-29T15:37:09;99553.38;;;26.10;64.45
19594;BME280;9944;48.240;16.478;2022-07-29T15:41:13;99544.72;;;26.05;65.32
19594;BME280;9944;48.240;16.478;2022-07-29T15:45:17;99531.59;;;25.99;65.08
19594;BME280;9944;48.240;16.478;2022-07-29T15:49:20;99527.38;;;25.95;65.37
19594;BME280;9944;48.240;16.478;2022-07-29T15:53:25;99520.94;;;25.97;66.25
19594;BME280;9944;48.240;16.478;2022-07-29T15:57:28;99518.34;;;25.96;65.67
19594;BME280;9944;48.240;16.478;2022-07-29T16:01:31;99507.72;;;25.92;66.43
19594;BME280;9944;48.240;16.478;2022-07-29T16:05:34;99513.28;;;25.89;66.82
19594;BME280;9944;48.240;16.478;2022-07-29T16:09:39;99504.34;;;25.89;67.48
19594;BME280;9944;48.240;16.478;2022-07-29T16:13:43;99502.78;;;25.85;67.16
19594;BME280;9944;48.240;16.478;2022-07-29T16:17:47;99503.88;;;25.82;67.16
19594;BME280;9944;48.240;16.478;2022-07-29T16:21:50;99513.88;;;25.80;66.78
19594;BME280;9944;48.240;16.478;2022-07-29T16:26:01;99525.81;;;25.76;66.79
19594;BME280;9944;48.240;16.478;2022-07-29T16:30:06;99523.34;;;25.73;66.71
19594;BME280;9944;48.240;16.478;2022-07-29T16:34:10;99517.28;;;25.69;67.34
19594;BME280;9944;48.240;16.478;2022-07-29T16:38:14;99514.44;;;25.71;67.72
19594;BME280;9944;48.240;16.478;2022-07-29T16:42:18;99514.44;;;25.71;67.22
19594;BME280;9944;48.240;16.478;2022-07-29T16:46:43;99506.28;;;25.72;67.27
19594;BME280;9944;48.240;16.478;2022-07-29T16:50:46;99515.34;;;25.71;66.96
19594;BME280;9944;48.240;16.478;2022-07-29T16:54:49;99513.50;;;25.72;67.00
19594;BME280;9944;48.240;16.478;2022-07-29T16:58:56;99524.94;;;25.75;67.45
19594;BME280;9944;48.240;16.478;2022-07-29T17:02:59;99505.13;;;25.77;67.39
19594;BME280;9944;48.240;16.478;2022-07-29T17:07:02;99497.13;;;25.75;67.40
19594;BME280;9944;48.240;16.478;2022-07-29T17:11:05;99490.75;;;25.76;66.57
19594;BME280;9944;48.240;16.478;2022-07-29T17:15:11;99506.09;;;25.75;66.96
19594;BME280;9944;48.240;16.478;2022-07-29T17:19:14;99517.72;;;25.76;67.36
19594;BME280;9944;48.240;16.478;2022-07-29T17:23:17;99516.97;;;25.74;67.08
19594;BME280;9944;48.240;16.478;2022-07-29T17:27:21;99521.78;;;25.69;67.08
19594;BME280;9944;48.240;16.478;2022-07-29T17:31:25;99515.63;;;25.67;66.78
19594;BME280;9944;48.240;16.478;2022-07-29T17:35:29;99501.38;;;25.65;66.58
19594;BME280;9944;48.240;16.478;2022-07-29T17:39:49;99498.88;;;25.62;67.69
19594;BME280;9944;48.240;16.478;2022-07-29T17:43:53;99501.66;;;25.60;67.39
19594;BME280;9944;48.240;16.478;2022-07-29T17:47:58;99497.16;;;25.61;67.47
19594;BME280;9944;48.240;16.478;2022-07-29T17:52:01;99502.41;;;25.62;67.11
19594;BME280;9944;48.240;16.478;2022-07-29T17:56:04;99503.59;;;25.58;67.57
19594;BME280;9944;48.240;16.478;2022-07-29T18:00:08;99512.63;;;25.57;67.32
19594;BME280;9944;48.240;16.478;2022-07-29T18:04:13;99502.72;;;25.58;67.68
19594;BME280;9944;48.240;16.478;2022-07-29T18:08:20;99501.97;;;25.55;68.19
19594;BME280;9944;48.240;16.478;2022-07-29T18:12:24;99490.59;;;25.50;68.07
19594;BME280;9944;48.240;16.478;2022-07-29T18:16:27;99505.38;;;25.43;68.49
19594;BME280;9944;48.240;16.478;2022-07-29T18:20:32;99493.25;;;25.36;68.29
19594;BME280;9944;48.240;16.478;2022-07-29T18:24:35;99504.13;;;25.34;68.30
19594;BME280;9944;48.240;16.478;2022-07-29T18:28:39;99505.97;;;25.34;68.59
19594;BME280;9944;48.240;16.478;2022-07-29T18:32:42;99515.97;;;25.32;68.71
19594;BME280;9944;48.240;16.478;2022-07-29T18:37:06;99525.38;;;25.25;68.77
19594;BME280;9944;48.240;16.478;2022-07-29T18:41:10;99530.94;;;25.22;69.14
19594;BME280;9944;48.240;16.478;2022-07-29T18:45:13;99532.09;;;25.17;68.96
19594;BME280;9944;48.240;16.478;2022-07-29T18:49:20;99526.88;;;25.14;69.28
19594;BME280;9944;48.240;16.478;2022-07-29T18:53:25;99535.13;;;25.11;69.75
19594;BME280;9944;48.240;16.478;2022-07-29T18:57:28;99527.22;;;25.08;69.96
19594;BME280;9944;48.240;16.478;2022-07-29T19:01:51;99521.16;;;25.05;69.46
19594;BME280;9944;48.240;16.478;2022-07-29T19:05:55;99523.34;;;24.98;69.49
19594;BME280;9944;48.240;16.478;2022-07-29T19:10:00;99521.06;;;24.92;69.66
19594;BME280;9944;48.240;16.478;2022-07-29T19:14:05;99507.94;;;24.86;69.93
19594;BME280;9944;48.240;16.478;2022-07-29T19:18:08;99513.53;;;24.83;70.21
19594;BME280;9944;48.240;16.478;2022-07-29T19:22:14;99530.78;;;24.78;69.79
19594;BME280;9944;48.240;16.478;2022-07-29T19:26:19;99526.47;;;24.76;70.42
19594;BME280;9944;48.240;16.478;2022-07-29T19:30:22;99520.41;;;24.72;70.00
19594;BME280;9944;48.240;16.478;2022-07-29T19:34:25;99525.97;;;24.69;69.91
19594;BME280;9944;48.240;16.478;2022-07-29T19:38:29;99533.25;;;24.67;69.91
19594;BME280;9944;48.240;16.478;2022-07-29T19:42:33;99529.97;;;24.62;69.86
19594;BME280;9944;48.240;16.478;2022-07-29T19:46:37;99540.13;;;24.57;70.70
19594;BME280;9944;48.240;16.478;2022-07-29T19:50:40;99548.38;;;24.54;70.24
19594;BME280;9944;48.240;16.478;2022-07-29T19:54:44;99546.78;;;24.50;70.25
19594;BME280;9944;48.240;16.478;2022-07-29T19:58:49;99555.13;;;24.45;70.20
19594;BME280;9944;48.240;16.478;2022-07-29T20:02:52;99552.69;;;24.40;70.46
19594;BME280;9944;48.240;16.478;2022-07-29T20:06:57;99551.13;;;24.36;70.62
19594;BME280;9944;48.240;16.478;2022-07-29T20:11:02;99553.03;;;24.34;70.53
19594;BME280;9944;48.240;16.478;2022-07-29T20:15:08;99556.75;;;24.32;70.83
19594;BME280;9944;48.240;16.478;2022-07-29T20:19:17;99558.06;;;24.24;70.50
19594;BME280;9944;48.240;16.478;2022-07-29T20:23:20;99565.59;;;24.18;70.83
19594;BME280;9944;48.240;16.478;2022-07-29T20:27:24;99572.19;;;24.12;71.15
19594;BME280;9944;48.240;16.478;2022-07-29T20:31:28;99559.81;;;24.10;71.33
19594;BME280;9944;48.240;16.478;2022-07-29T20:35:32;99565.34;;;24.06;71.42
19594;BME280;9944;48.240;16.478;2022-07-29T20:39:36;99562.91;;;24.02;72.00
19594;BME280;9944;48.240;16.478;2022-07-29T20:43:39;99560.44;;;23.97;72.04
19594;BME280;9944;48.240;16.478;2022-07-29T20:47:44;99558.13;;;23.91;72.21
19594;BME280;9944;48.240;16.478;2022-07-29T20:51:47;99561.94;;;23.87;71.90
19594;BME280;9944;48.240;16.478;2022-07-29T20:55:50;99558.44;;;23.85;72.42
19594;BME280;9944;48.240;16.478;2022-07-29T20:59:53;99555.75;;;23.85;72.21
19594;BME280;9944;48.240;16.478;2022-07-29T21:03:57;99556.72;;;23.84;72.24
19594;BME280;9944;48.240;16.478;2022-07-29T21:08:01;99556.78;;;23.82;72.34
19594;BME280;9944;48.240;16.478;2022-07-29T21:12:04;99546.19;;;23.79;72.71
19594;BME280;9944;48.240;16.478;2022-07-29T21:16:08;99545.31;;;23.79;72.49
19594;BME280;9944;48.240;16.478;2022-07-29T21:20:18;99538.34;;;23.75;72.46
19594;BME280;9944;48.240;16.478;2022-07-29T21:24:21;99542.00;;;23.74;72.44
19594;BME280;9944;48.240;16.478;2022-07-29T21:28:24;99529.50;;;23.73;72.90
19594;BME280;9944;48.240;16.478;2022-07-29T21:32:36;99526.06;;;23.71;72.45
19594;BME280;9944;48.240;16.478;2022-07-29T21:36:40;99533.34;;;23.68;72.43
19594;BME280;9944;48.240;16.478;2022-07-29T21:40:50;99527.25;;;23.65;72.59
19594;BME280;9944;48.240;16.478;2022-07-29T21:44:53;99530.97;;;23.62;72.59
19594;BME280;9944;48.240;16.478;2022-07-29T21:48:56;99527.50;;;23.60;72.39
19594;BME280;9944;48.240;16.478;2022-07-29T21:53:01;99524.09;;;23.57;72.80
19594;BME280;9944;48.240;16.478;2022-07-29T21:57:05;99528.78;;;23.53;72.78
19594;BME280;9944;48.240;16.478;2022-07-29T22:01:08;99531.63;;;23.50;72.78
19594;BME280;9944;48.240;16.478;2022-07-29T22:05:12;99526.31;;;23.48;72.78
19594;BME280;9944;48.240;16.478;2022-07-29T22:09:17;99523.72;;;23.47;72.79
19594;BME280;9944;48.240;16.478;2022-07-29T22:13:20;99519.41;;;23.44;72.29
19594;BME280;9944;48.240;16.478;2022-07-29T22:17:24;99515.06;;;23.42;72.87
19594;BME280;9944;48.240;16.478;2022-07-29T22:21:26;99514.25;;;23.40;72.89